Time;durP1;ratioP1;P1;durP2;ratioP2;P2;SDS_P1;SDS_P2;PMS_P1;PMS_P2;Temp;Humidity;BMP_temperature;BMP_pressure;BME280_temperature;BME280_humidity;BME280_pressure;Samples;Min_cycle;Max_cycle;Signal;HPM_P1;HPM_P2
2022/05/30 00:01:49;;;;;;;8.48;2.13;;;;;;;;;;4970133;28;20034;-90
2022/05/30 00:04:15;;;;;;;13.98;2.40;;;;;;;;;;4966078;28;20030;-90
2022/05/30 00:06:41;;;;;;;7.57;2.47;;;;;;;;;;4984890;28;20038;-89
2022/05/30 00:09:08;;;;;;;10.75;2.45;;;;;;;;;;4965939;28;20022;-89
2022/05/30 00:11:36;;;;;;;8.65;2.20;;;;;;;;;;4984628;28;20648;-90
2022/05/30 00:14:02;;;;;;;13.63;2.55;;;;;;;;;;4966416;28;20041;-90
2022/05/30 00:16:29;;;;;;;11.35;2.60;;;;;;;;;;4967921;28;20116;-89
2022/05/30 00:18:57;;;;;;;13.77;2.38;;;;;;;;;;4966776;28;20472;-90
2022/05/30 00:21:24;;;;;;;11.63;2.35;;;;;;;;;;4967268;28;20113;-90
2022/05/30 00:23:53;;;;;;;5.85;2.53;;;;;;;;;;4975413;28;20057;-89
2022/05/30 00:26:19;;;;;;;10.82;2.17;;;;;;;;;;4984349;28;20022;-89
2022/05/30 00:28:45;;;;;;;4.95;1.80;;;;;;;;;;4966288;28;20112;-90
2022/05/30 00:31:12;;;;;;;10.63;2.33;;;;;;;;;;4980072;28;20045;-90
2022/05/30 00:33:39;;;;;;;16.65;2.00;;;;;;;;;;4968618;28;20350;-88
2022/05/30 00:36:05;;;;;;;14.23;1.92;;;;;;;;;;4986072;28;20504;-88
2022/05/30 00:38:31;;;;;;;13.00;2.53;;;;;;;;;;4981125;28;20026;-90
2022/05/30 00:40:58;;;;;;;13.63;2.20;;;;;;;;;;4956015;28;20089;-90
2022/05/30 00:43:24;;;;;;;9.95;1.85;;;;;;;;;;4981112;28;20150;-90
2022/05/30 00:45:50;;;;;;;9.32;2.40;;;;;;;;;;4988239;28;20105;-89
2022/05/30 00:48:19;;;;;;;12.77;2.20;;;;;;;;;;4977802;28;20410;-89
2022/05/30 00:50:45;;;;;;;9.43;2.83;;;;;;;;;;4964546;28;20368;-88
2022/05/30 00:53:11;;;;;;;9.25;2.13;;;;;;;;;;4978405;28;20066;-89
2022/05/30 00:55:37;;;;;;;7.72;2.00;;;;;;;;;;4968423;28;20413;-90
2022/05/30 00:58:04;;;;;;;6.95;1.92;;;;;;;;;;4961958;28;20050;-89
2022/05/30 01:00:30;;;;;;;11.43;2.05;;;;;;;;;;4963853;28;20042;-89
2022/05/30 01:08:27;;;;;;;4.05;2.03;;;;;;;;;;4982257;28;20081;-89
2022/05/30 01:10:53;;;;;;;6.20;2.20;;;;;;;;;;4963476;28;20886;-87
2022/05/30 01:13:19;;;;;;;7.68;1.98;;;;;;;;;;4980424;28;20035;-86
2022/05/30 01:15:46;;;;;;;4.95;2.15;;;;;;;;;;4973916;28;20105;-88
2022/05/30 01:18:17;;;;;;;12.90;2.22;;;;;;;;;;4964149;28;20462;-89
2022/05/30 01:21:02;;;;;;;9.85;1.90;;;;;;;;;;4961057;28;20049;-86
2022/05/30 01:23:46;;;;;;;4.82;1.77;;;;;;;;;;4979779;28;20042;-88
2022/05/30 01:26:16;;;;;;;4.13;1.40;;;;;;;;;;4967638;28;20494;-88
2022/05/30 01:28:48;;;;;;;5.15;1.60;;;;;;;;;;4968045;28;20050;-87
2022/05/30 01:31:15;;;;;;;9.50;1.80;;;;;;;;;;4959500;28;20494;-87
2022/05/30 01:33:41;;;;;;;8.68;2.22;;;;;;;;;;4965343;28;20038;-88
2022/05/30 01:36:08;;;;;;;8.07;1.70;;;;;;;;;;4966340;28;20517;-88
2022/05/30 01:38:34;;;;;;;8.90;2.15;;;;;;;;;;4981325;28;20540;-88
2022/05/30 01:41:00;;;;;;;5.03;2.30;;;;;;;;;;4987833;28;20543;-88
2022/05/30 01:43:26;;;;;;;5.75;2.10;;;;;;;;;;4980219;28;20034;-87
2022/05/30 01:45:52;;;;;;;5.90;2.05;;;;;;;;;;4957262;28;20026;-88
2022/05/30 01:48:19;;;;;;;8.68;2.22;;;;;;;;;;4963146;28;20401;-88
2022/05/30 01:50:46;;;;;;;7.75;2.17;;;;;;;;;;4978371;28;20018;-87
2022/05/30 01:53:12;;;;;;;3.50;2.08;;;;;;;;;;4964894;28;20034;-88
2022/05/30 01:55:38;;;;;;;10.80;2.30;;;;;;;;;;4966131;28;20034;-88
2022/05/30 01:58:05;;;;;;;4.07;1.63;;;;;;;;;;4958048;28;20232;-87
2022/05/30 02:00:31;;;;;;;7.65;2.20;;;;;;;;;;4968594;28;20019;-88
2022/05/30 02:02:57;;;;;;;8.73;1.95;;;;;;;;;;4969800;28;20034;-88
2022/05/30 02:05:24;;;;;;;7.78;1.88;;;;;;;;;;4961821;28;20026;-88
2022/05/30 02:07:50;;;;;;;6.72;1.63;;;;;;;;;;4970602;28;20041;-87
2022/05/30 02:10:16;;;;;;;6.80;1.90;;;;;;;;;;4985697;28;20045;-87
2022/05/30 02:12:42;;;;;;;5.50;1.60;;;;;;;;;;4967417;28;20397;-85
2022/05/30 02:15:08;;;;;;;10.48;2.17;;;;;;;;;;4965032;28;20073;-88
2022/05/30 02:17:35;;;;;;;3.40;1.67;;;;;;;;;;4957856;28;20034;-88
2022/05/30 02:20:01;;;;;;;3.10;1.77;;;;;;;;;;4965874;28;20030;-88
2022/05/30 02:22:29;;;;;;;6.63;1.88;;;;;;;;;;4959803;28;20478;-88
2022/05/30 02:24:55;;;;;;;10.63;1.85;;;;;;;;;;4969234;28;20034;-86
2022/05/30 02:27:21;;;;;;;11.43;1.70;;;;;;;;;;4968172;28;20074;-86
2022/05/30 02:29:48;;;;;;;11.10;2.13;;;;;;;;;;4976102;28;20061;-88
2022/05/30 02:32:14;;;;;;;4.53;2.20;;;;;;;;;;4964781;28;20035;-88
2022/05/30 02:37:29;;;;;;;6.78;2.17;;;;;;;;;;4931710;28;20560;-88
2022/05/30 02:39:55;;;;;;;7.70;1.65;;;;;;;;;;4960492;28;20054;-88
2022/05/30 02:42:21;;;;;;;7.53;1.60;;;;;;;;;;4985630;28;20069;-88
2022/05/30 02:44:48;;;;;;;7.38;2.05;;;;;;;;;;4979498;28;20058;-85
2022/05/30 02:47:16;;;;;;;12.18;1.80;;;;;;;;;;4981133;28;20038;-88
2022/05/30 02:49:42;;;;;;;7.32;2.08;;;;;;;;;;4967411;28;20053;-88
2022/05/30 02:52:12;;;;;;;6.20;1.80;;;;;;;;;;4980706;28;20042;-87
2022/05/30 02:54:39;;;;;;;4.70;1.60;;;;;;;;;;4985471;28;20042;-88
2022/05/30 02:57:05;;;;;;;3.90;1.42;;;;;;;;;;4982201;28;20030;-87
2022/05/30 02:59:39;;;;;;;2.80;1.42;;;;;;;;;;4966332;28;20078;-85
2022/05/30 03:02:05;;;;;;;5.25;1.60;;;;;;;;;;4979903;28;20093;-86
2022/05/30 03:04:31;;;;;;;3.60;1.63;;;;;;;;;;4968764;28;20076;-88
2022/05/30 03:06:57;;;;;;;7.50;1.52;;;;;;;;;;4967253;28;20433;-87
2022/05/30 03:09:23;;;;;;;6.10;1.30;;;;;;;;;;4964385;28;20363;-88
2022/05/30 03:11:49;;;;;;;5.45;1.48;;;;;;;;;;4978331;28;20045;-87
2022/05/30 03:14:16;;;;;;;5.53;1.63;;;;;;;;;;4965958;28;20027;-88
2022/05/30 03:16:42;;;;;;;7.20;1.98;;;;;;;;;;4969682;28;20061;-87
2022/05/30 03:19:08;;;;;;;10.18;2.08;;;;;;;;;;4969415;28;20417;-88
2022/05/30 03:21:34;;;;;;;5.78;1.63;;;;;;;;;;4970326;28;20790;-88
2022/05/30 03:24:00;;;;;;;5.60;1.75;;;;;;;;;;4963237;28;20030;-87
2022/05/30 03:26:26;;;;;;;7.75;1.92;;;;;;;;;;4979407;28;20121;-86
2022/05/30 03:28:59;;;;;;;4.10;1.73;;;;;;;;;;4969179;28;20058;-86
2022/05/30 03:31:32;;;;;;;5.78;1.77;;;;;;;;;;4980165;28;20022;-87
2022/05/30 03:33:58;;;;;;;8.38;1.95;;;;;;;;;;4961035;28;20045;-87
2022/05/30 03:36:27;;;;;;;7.03;2.13;;;;;;;;;;4963481;28;20061;-86
2022/05/30 03:38:53;;;;;;;8.18;2.35;;;;;;;;;;4960138;28;20557;-87
2022/05/30 03:41:20;;;;;;;6.82;1.83;;;;;;;;;;4968588;28;20034;-87
2022/05/30 03:43:46;;;;;;;3.65;1.52;;;;;;;;;;4979377;28;20034;-86
2022/05/30 03:46:12;;;;;;;9.13;1.85;;;;;;;;;;4965787;28;20377;-87
2022/05/30 03:48:38;;;;;;;6.85;1.92;;;;;;;;;;4980396;28;20761;-86
2022/05/30 03:51:05;;;;;;;5.00;2.05;;;;;;;;;;4974863;28;20030;-86
2022/05/30 03:53:32;;;;;;;8.68;2.28;;;;;;;;;;4975192;28;20045;-85
2022/05/30 03:55:58;;;;;;;5.97;2.00;;;;;;;;;;4978023;28;20033;-86
2022/05/30 03:58:25;;;;;;;14.95;2.58;;;;;;;;;;4981140;28;20320;-86
2022/05/30 04:00:51;;;;;;;9.07;2.45;;;;;;;;;;4978628;28;20034;-86
2022/05/30 04:03:17;;;;;;;7.60;2.80;;;;;;;;;;4979806;28;20073;-87
2022/05/30 04:05:43;;;;;;;9.68;2.25;;;;;;;;;;4968032;28;20029;-85
2022/05/30 04:08:09;;;;;;;8.32;2.15;;;;;;;;;;4985154;28;20048;-87
2022/05/30 04:10:35;;;;;;;6.00;2.38;;;;;;;;;;4981151;28;20033;-87
2022/05/30 04:13:06;;;;;;;8.88;2.33;;;;;;;;;;4965315;28;20042;-86
2022/05/30 04:15:32;;;;;;;8.43;2.53;;;;;;;;;;4966418;28;20506;-87
2022/05/30 04:17:58;;;;;;;13.07;2.88;;;;;;;;;;4962382;28;23468;-87
2022/05/30 04:20:24;;;;;;;12.25;2.22;;;;;;;;;;4959475;28;20102;-85
2022/05/30 04:22:50;;;;;;;4.93;1.90;;;;;;;;;;4981970;28;20157;-85
2022/05/30 04:25:16;;;;;;;6.25;2.15;;;;;;;;;;4969164;28;20026;-87
2022/05/30 04:27:42;;;;;;;6.00;2.50;;;;;;;;;;4967362;28;20133;-87
2022/05/30 04:30:09;;;;;;;8.63;2.30;;;;;;;;;;4962379;28;20041;-86
2022/05/30 04:32:36;;;;;;;8.25;2.30;;;;;;;;;;4961901;28;20510;-87
2022/05/30 04:35:02;;;;;;;15.40;2.63;;;;;;;;;;4967264;28;20034;-85
2022/05/30 04:37:29;;;;;;;11.07;2.50;;;;;;;;;;4964931;28;20096;-87
2022/05/30 04:39:55;;;;;;;8.27;2.60;;;;;;;;;;4956648;28;20027;-86
2022/05/30 04:42:21;;;;;;;9.27;2.20;;;;;;;;;;4983845;28;20524;-86
2022/05/30 04:44:47;;;;;;;6.90;2.08;;;;;;;;;;4967066;28;20117;-86
2022/05/30 04:47:13;;;;;;;9.45;2.70;;;;;;;;;;4964380;28;20152;-86
2022/05/30 04:49:39;;;;;;;8.55;2.05;;;;;;;;;;4970114;28;20100;-87
2022/05/30 04:52:06;;;;;;;7.70;2.22;;;;;;;;;;4967442;28;20023;-86
2022/05/30 04:54:33;;;;;;;11.35;1.88;;;;;;;;;;4964098;28;20402;-87
2022/05/30 04:56:59;;;;;;;15.02;2.10;;;;;;;;;;4966679;28;20046;-86
2022/05/30 04:59:26;;;;;;;6.25;2.70;;;;;;;;;;4963126;28;20304;-85
2022/05/30 05:01:52;;;;;;;10.52;1.92;;;;;;;;;;4967865;28;20038;-86
2022/05/30 05:04:18;;;;;;;16.05;2.60;;;;;;;;;;4962020;28;20035;-85
2022/05/30 05:06:44;;;;;;;6.40;2.00;;;;;;;;;;4957334;28;20033;-86
2022/05/30 05:09:16;;;;;;;8.30;1.80;;;;;;;;;;4979617;28;20092;-86
2022/05/30 05:11:43;;;;;;;12.95;2.03;;;;;;;;;;4973589;28;20504;-86
2022/05/30 05:14:09;;;;;;;10.38;2.35;;;;;;;;;;4976777;28;20050;-87
2022/05/30 05:16:35;;;;;;;8.20;2.38;;;;;;;;;;4978725;28;20337;-87
2022/05/30 05:19:01;;;;;;;11.13;2.42;;;;;;;;;;4960154;28;20038;-86
2022/05/30 05:21:29;;;;;;;6.68;2.42;;;;;;;;;;4972140;28;20042;-86
2022/05/30 05:23:55;;;;;;;11.07;2.50;;;;;;;;;;4981361;28;20039;-86
2022/05/30 05:26:22;;;;;;;8.63;2.10;;;;;;;;;;4976962;28;20026;-87
2022/05/30 05:28:48;;;;;;;11.10;2.75;;;;;;;;;;4969594;28;20054;-86
2022/05/30 05:31:16;;;;;;;5.35;2.47;;;;;;;;;;4967502;28;20042;-86
2022/05/30 05:33:42;;;;;;;8.98;2.80;;;;;;;;;;4982546;28;20643;-86
2022/05/30 05:36:08;;;;;;;7.10;2.90;;;;;;;;;;4968558;28;20449;-85
2022/05/30 05:38:34;;;;;;;5.72;2.25;;;;;;;;;;4962738;28;20453;-87
2022/05/30 05:41:00;;;;;;;5.45;2.10;;;;;;;;;;4974189;28;20034;-88
2022/05/30 05:43:27;;;;;;;9.40;2.20;;;;;;;;;;4957848;28;20043;-87
2022/05/30 05:45:53;;;;;;;8.45;2.53;;;;;;;;;;4963267;28;20129;-87
2022/05/30 05:48:19;;;;;;;14.32;2.80;;;;;;;;;;4965429;28;20173;-87
2022/05/30 05:50:45;;;;;;;8.82;2.08;;;;;;;;;;4975484;28;20470;-87
2022/05/30 05:53:11;;;;;;;7.40;2.83;;;;;;;;;;4963337;28;20046;-86
2022/05/30 05:55:38;;;;;;;3.63;2.08;;;;;;;;;;4958599;28;20030;-88
2022/05/30 05:58:04;;;;;;;4.78;2.20;;;;;;;;;;4978286;28;20180;-87
2022/05/30 06:00:32;;;;;;;6.43;1.90;;;;;;;;;;4963901;28;20616;-87
2022/05/30 06:02:58;;;;;;;4.93;1.92;;;;;;;;;;4965882;28;20034;-87
2022/05/30 06:05:25;;;;;;;5.95;1.92;;;;;;;;;;4969988;28;20501;-85
2022/05/30 06:07:51;;;;;;;6.43;2.25;;;;;;;;;;4979713;28;20122;-87
2022/05/30 06:10:17;;;;;;;7.85;2.33;;;;;;;;;;4976812;28;20059;-85
2022/05/30 06:12:45;;;;;;;10.95;2.35;;;;;;;;;;4967815;28;20038;-87
2022/05/30 06:15:16;;;;;;;6.65;2.00;;;;;;;;;;4963865;28;20034;-88
2022/05/30 06:17:42;;;;;;;5.30;1.77;;;;;;;;;;4963413;28;20046;-87
2022/05/30 06:20:10;;;;;;;2.60;1.77;;;;;;;;;;4961895;28;20034;-86
2022/05/30 06:22:36;;;;;;;6.45;2.00;;;;;;;;;;4983250;28;20081;-88
2022/05/30 06:25:03;;;;;;;3.63;1.73;;;;;;;;;;4966123;28;20034;-87
2022/05/30 06:27:35;;;;;;;6.03;2.25;;;;;;;;;;4970162;28;20096;-87
2022/05/30 06:30:09;;;;;;;5.45;1.40;;;;;;;;;;4980458;28;20447;-87
2022/05/30 06:32:35;;;;;;;3.15;1.13;;;;;;;;;;4966829;28;20406;-87
2022/05/30 06:35:01;;;;;;;1.75;1.13;;;;;;;;;;4972304;28;20066;-87
2022/05/30 06:37:27;;;;;;;2.47;1.30;;;;;;;;;;4973817;28;20035;-86
2022/05/30 06:39:53;;;;;;;2.78;1.40;;;;;;;;;;4977946;28;20041;-88
2022/05/30 06:42:19;;;;;;;6.63;1.00;;;;;;;;;;4965300;28;20311;-87
2022/05/30 06:44:45;;;;;;;2.30;1.05;;;;;;;;;;4960537;28;20038;-87
2022/05/30 06:47:12;;;;;;;2.33;1.23;;;;;;;;;;4966056;28;20028;-88
2022/05/30 06:49:38;;;;;;;4.80;1.20;;;;;;;;;;4970868;28;20078;-86
2022/05/30 06:52:04;;;;;;;2.28;0.98;;;;;;;;;;4969654;28;20325;-87
2022/05/30 06:54:31;;;;;;;2.13;0.90;;;;;;;;;;4966063;28;20113;-86
2022/05/30 06:59:45;;;;;;;5.10;1.23;;;;;;;;;;4980881;28;20041;-87
2022/05/30 07:02:11;;;;;;;12.90;4.15;;;;;;;;;;4965567;28;20474;-88
2022/05/30 07:04:37;;;;;;;5.47;1.27;;;;;;;;;;4964027;28;20101;-87
2022/05/30 07:07:04;;;;;;;3.65;1.27;;;;;;;;;;4979204;28;20031;-87
2022/05/30 07:09:31;;;;;;;4.47;0.95;;;;;;;;;;4962646;28;20034;-87
2022/05/30 07:11:57;;;;;;;4.55;1.05;;;;;;;;;;4984874;28;20045;-87
2022/05/30 07:14:23;;;;;;;1.70;0.95;;;;;;;;;;4969167;28;20042;-87
2022/05/30 07:16:49;;;;;;;1.02;0.85;;;;;;;;;;4963209;28;20034;-88
2022/05/30 07:19:15;;;;;;;3.45;0.95;;;;;;;;;;4965001;28;20066;-87
2022/05/30 07:21:41;;;;;;;2.13;1.00;;;;;;;;;;4962206;28;20608;-87
2022/05/30 07:24:08;;;;;;;2.25;0.93;;;;;;;;;;4963605;28;20039;-87
2022/05/30 07:26:34;;;;;;;2.78;1.05;;;;;;;;;;4967142;28;20544;-86
2022/05/30 07:29:00;;;;;;;6.07;1.00;;;;;;;;;;4969351;28;20043;-88
2022/05/30 07:31:28;;;;;;;1.67;0.70;;;;;;;;;;4945452;28;20054;-88
2022/05/30 07:33:54;;;;;;;2.33;0.98;;;;;;;;;;4962891;28;20514;-87
2022/05/30 07:36:25;;;;;;;1.00;0.80;;;;;;;;;;4946159;28;20053;-87
2022/05/30 07:38:52;;;;;;;2.80;0.73;;;;;;;;;;4957764;28;20051;-88
2022/05/30 07:41:19;;;;;;;2.30;0.70;;;;;;;;;;4949095;28;20082;-87
2022/05/30 07:43:45;;;;;;;2.55;0.85;;;;;;;;;;4952398;28;20425;-87
2022/05/30 07:46:12;;;;;;;2.17;0.80;;;;;;;;;;4953399;28;20502;-88
2022/05/30 07:48:39;;;;;;;2.28;0.80;;;;;;;;;;4960831;28;20034;-87
2022/05/30 07:51:07;;;;;;;5.88;0.93;;;;;;;;;;4946363;28;20047;-87
2022/05/30 07:53:33;;;;;;;4.88;1.10;;;;;;;;;;4951813;28;20062;-87
2022/05/30 07:55:59;;;;;;;4.35;0.93;;;;;;;;;;4946034;28;20042;-87
2022/05/30 07:58:26;;;;;;;1.80;0.93;;;;;;;;;;4962405;28;20027;-87
2022/05/30 08:00:52;;;;;;;0.65;0.60;;;;;;;;;;4944690;28;20042;-87
2022/05/30 08:03:19;;;;;;;1.27;0.50;;;;;;;;;;4951454;28;20121;-87
2022/05/30 08:05:46;;;;;;;4.63;0.70;;;;;;;;;;4944180;28;20027;-89
2022/05/30 08:08:13;;;;;;;0.95;0.70;;;;;;;;;;4953840;28;20487;-88
2022/05/30 08:10:38;;;;;;;2.42;0.88;;;;;;;;;;4942740;28;20102;-88
2022/05/30 08:13:05;;;;;;;1.77;0.80;;;;;;;;;;4946921;28;20038;-87
2022/05/30 08:15:31;;;;;;;1.10;0.77;;;;;;;;;;4943616;28;20530;-88
2022/05/30 08:17:58;;;;;;;1.77;0.80;;;;;;;;;;4963319;28;20081;-88
2022/05/30 08:20:24;;;;;;;5.60;0.85;;;;;;;;;;4943837;28;20042;-88
2022/05/30 08:22:50;;;;;;;3.17;1.45;;;;;;;;;;4948071;28;20314;-88
2022/05/30 08:25:17;;;;;;;2.22;1.23;;;;;;;;;;4949735;28;20034;-88
2022/05/30 08:27:44;;;;;;;2.08;0.90;;;;;;;;;;4951004;28;20019;-89
2022/05/30 08:30:11;;;;;;;2.25;1.00;;;;;;;;;;4983259;28;20034;-88
2022/05/30 08:32:39;;;;;;;2.17;0.80;;;;;;;;;;4985171;28;21825;-88
2022/05/30 08:35:06;;;;;;;2.42;0.90;;;;;;;;;;4961398;28;20030;-87
2022/05/30 08:37:33;;;;;;;15.15;2.67;;;;;;;;;;4971534;28;20553;-88
2022/05/30 08:42:49;;;;;;;2.45;1.05;;;;;;;;;;4985741;28;20127;-88
2022/05/30 08:45:20;;;;;;;1.50;0.68;;;;;;;;;;4966595;28;20077;-88
2022/05/30 08:47:51;;;;;;;1.85;0.45;;;;;;;;;;4962007;28;20029;-88
2022/05/30 08:50:24;;;;;;;1.85;0.50;;;;;;;;;;4954578;28;20520;-86
2022/05/30 08:52:53;;;;;;;2.33;0.85;;;;;;;;;;4956336;28;20509;-86
2022/05/30 08:55:22;;;;;;;3.30;0.50;;;;;;;;;;4980727;28;20618;-88
2022/05/30 08:57:51;;;;;;;0.82;0.68;;;;;;;;;;4964574;28;20038;-88
2022/05/30 09:00:32;;;;;;;1.42;0.50;;;;;;;;;;4977582;28;20674;-88
2022/05/30 09:03:21;;;;;;;0.52;0.35;;;;;;;;;;4960004;28;20038;-87
2022/05/30 09:05:50;;;;;;;0.68;0.40;;;;;;;;;;4930557;28;20038;-86
2022/05/30 09:08:35;;;;;;;3.45;0.50;;;;;;;;;;4959635;28;20039;-89
2022/05/30 09:11:03;;;;;;;1.58;0.45;;;;;;;;;;4977793;28;20077;-89
2022/05/30 09:13:35;;;;;;;3.33;0.65;;;;;;;;;;4977900;28;20038;-87
2022/05/30 09:16:04;;;;;;;1.92;0.43;;;;;;;;;;4961636;28;20042;-89
2022/05/30 09:18:40;;;;;;;2.33;0.40;;;;;;;;;;4973552;28;20045;-88
2022/05/30 09:21:06;;;;;;;2.45;0.80;;;;;;;;;;4957886;28;20085;-88
2022/05/30 09:23:32;;;;;;;0.73;0.40;;;;;;;;;;4952904;28;20555;-89
2022/05/30 09:26:03;;;;;;;2.38;0.63;;;;;;;;;;4960594;28;20030;-88
2022/05/30 09:28:33;;;;;;;3.00;0.52;;;;;;;;;;4967320;28;20034;-88
2022/05/30 09:31:14;;;;;;;1.95;0.77;;;;;;;;;;4962622;28;20026;-89
2022/05/30 09:33:50;;;;;;;2.15;0.73;;;;;;;;;;4961162;28;20030;-86
2022/05/30 09:36:21;;;;;;;3.30;0.55;;;;;;;;;;4963136;28;20088;-89
2022/05/30 09:38:50;;;;;;;2.72;0.93;;;;;;;;;;4964274;28;20038;-88
2022/05/30 09:41:18;;;;;;;3.53;0.90;;;;;;;;;;4979835;28;20539;-88
2022/05/30 09:43:45;;;;;;;1.63;0.80;;;;;;;;;;4964870;28;20273;-88
2022/05/30 09:46:26;;;;;;;1.25;0.70;;;;;;;;;;4961542;28;20049;-86
2022/05/30 09:49:04;;;;;;;2.78;0.80;;;;;;;;;;4964733;28;20494;-88
2022/05/30 09:51:34;;;;;;;4.30;1.00;;;;;;;;;;4962535;28;20032;-88
2022/05/30 09:54:00;;;;;;;1.83;0.55;;;;;;;;;;4964386;28;20059;-88
2022/05/30 09:56:28;;;;;;;0.95;0.35;;;;;;;;;;4963883;28;20046;-88
2022/05/30 09:59:11;;;;;;;0.57;0.32;;;;;;;;;;4961729;28;20497;-88
2022/05/30 10:01:37;;;;;;;0.77;0.60;;;;;;;;;;4965803;28;20482;-88
2022/05/30 10:04:19;;;;;;;0.30;0.30;;;;;;;;;;4947872;28;20155;-88
2022/05/30 10:07:01;;;;;;;0.57;0.38;;;;;;;;;;4961277;28;20038;-89
2022/05/30 10:09:27;;;;;;;4.32;0.70;;;;;;;;;;4956057;28;20247;-88
2022/05/30 10:11:54;;;;;;;0.80;0.30;;;;;;;;;;4963398;28;20192;-87
2022/05/30 10:14:25;;;;;;;1.33;0.40;;;;;;;;;;4960650;28;20129;-88
2022/05/30 10:16:53;;;;;;;0.68;0.30;;;;;;;;;;4959093;28;20100;-88
2022/05/30 10:19:24;;;;;;;0.50;0.50;;;;;;;;;;4964493;28;20124;-85
2022/05/30 10:30:20;;;;;;;0.50;0.40;;;;;;;;;;4976364;28;20053;-87
2022/05/30 10:32:46;;;;;;;0.47;0.45;;;;;;;;;;4960545;28;20331;-88
2022/05/30 10:35:32;;;;;;;1.42;0.95;;;;;;;;;;4957467;28;20035;-88
2022/05/30 10:38:10;;;;;;;1.35;0.50;;;;;;;;;;4964110;28;20114;-87
2022/05/30 10:40:40;;;;;;;0.90;0.60;;;;;;;;;;4966034;28;20117;-88
2022/05/30 10:43:09;;;;;;;8.35;3.67;;;;;;;;;;4968565;28;20047;-87
2022/05/30 10:45:50;;;;;;;3.67;0.60;;;;;;;;;;4961077;28;20027;-87
2022/05/30 10:48:31;;;;;;;3.05;0.70;;;;;;;;;;4963842;28;20030;-88
2022/05/30 10:51:17;;;;;;;0.70;0.63;;;;;;;;;;4966122;28;20116;-88
2022/05/30 10:53:43;;;;;;;;;;;;;;;;;;4965229;28;20042;-89
2022/05/30 10:56:16;;;;;;;3.35;0.50;;;;;;;;;;4964906;28;19914;-89
2022/05/30 10:58:51;;;;;;;20.20;3.55;;;;;;;;;;4965337;28;20046;-88
2022/05/30 11:01:27;;;;;;;2.95;0.65;;;;;;;;;;4961668;28;20031;-90
2022/05/30 11:04:04;;;;;;;2.60;0.85;;;;;;;;;;4964358;28;20233;-89
2022/05/30 11:06:33;;;;;;;3.33;0.90;;;;;;;;;;4981552;28;20478;-88
2022/05/30 11:08:59;;;;;;;2.63;1.00;;;;;;;;;;4966516;28;20031;-89
2022/05/30 11:11:28;;;;;;;1.48;0.50;;;;;;;;;;4965151;28;20061;-89
2022/05/30 11:13:57;;;;;;;1.02;0.50;;;;;;;;;;4961621;28;20833;-88
2022/05/30 11:16:32;;;;;;;0.98;0.40;;;;;;;;;;4977634;28;20092;-89
2022/05/30 11:19:01;;;;;;;2.47;0.60;;;;;;;;;;4979022;28;20041;-89
2022/05/30 11:21:31;;;;;;;1.10;0.55;;;;;;;;;;4959884;28;20066;-87
2022/05/30 11:24:00;;;;;;;0.85;0.60;;;;;;;;;;4979907;28;20198;-87
2022/05/30 11:26:45;;;;;;;2.00;0.63;;;;;;;;;;4965382;28;20030;-87
2022/05/30 11:29:14;;;;;;;8.32;0.60;;;;;;;;;;4982175;28;20454;-89
2022/05/30 11:31:49;;;;;;;1.85;0.57;;;;;;;;;;4970281;28;20030;-89
2022/05/30 11:34:19;;;;;;;1.25;0.47;;;;;;;;;;4983351;28;20031;-88
2022/05/30 11:36:51;;;;;;;3.08;0.70;;;;;;;;;;4976243;28;20022;-88
2022/05/30 11:39:41;;;;;;;1.48;0.65;;;;;;;;;;4965586;28;20034;-88
2022/05/30 11:42:19;;;;;;;3.75;0.77;;;;;;;;;;4984165;28;20038;-88
2022/05/30 11:44:48;;;;;;;2.13;0.60;;;;;;;;;;4984781;28;20030;-87
2022/05/30 11:47:13;;;;;;;4.13;0.57;;;;;;;;;;4977751;28;20502;-87
2022/05/30 11:49:44;;;;;;;3.85;0.80;;;;;;;;;;4966096;28;20100;-88
2022/05/30 11:52:34;;;;;;;3.30;0.68;;;;;;;;;;4982679;28;20084;-87
2022/05/30 11:55:00;;;;;;;1.40;0.90;;;;;;;;;;4966308;28;20038;-89
2022/05/30 11:57:59;;;;;;;0.88;0.52;;;;;;;;;;4972621;28;20422;-88
2022/05/30 12:00:36;;;;;;;2.35;0.80;;;;;;;;;;4910938;28;20046;-87
2022/05/30 12:03:05;;;;;;;1.63;0.60;;;;;;;;;;4965402;28;20038;-89
2022/05/30 12:05:49;;;;;;;2.40;0.70;;;;;;;;;;4965869;28;20068;-89
2022/05/30 12:08:19;;;;;;;8.20;1.27;;;;;;;;;;4981190;28;20046;-89
2022/05/30 12:10:51;;;;;;;1.85;0.73;;;;;;;;;;4967994;28;20042;-84
2022/05/30 12:13:29;;;;;;;1.08;0.98;;;;;;;;;;4964321;28;20049;-84
2022/05/30 12:16:21;;;;;;;3.58;0.73;;;;;;;;;;4959918;28;20042;-84
2022/05/30 12:24:18;;;;;;;1.65;1.00;;;;;;;;;;4982631;28;20041;-84
2022/05/30 12:26:53;;;;;;;3.05;0.68;;;;;;;;;;4956190;28;20061;-84
2022/05/30 12:29:44;;;;;;;1.13;0.80;;;;;;;;;;4982633;28;20056;-84
2022/05/30 12:32:16;;;;;;;2.13;0.98;;;;;;;;;;4974514;28;20435;-84
2022/05/30 12:35:00;;;;;;;3.88;1.30;;;;;;;;;;4958560;28;20037;-84
2022/05/30 12:37:41;;;;;;;4.18;1.05;;;;;;;;;;4976184;28;20050;-84
2022/05/30 12:40:11;;;;;;;4.32;1.08;;;;;;;;;;4959500;28;20026;-84
2022/05/30 12:42:42;;;;;;;6.15;1.20;;;;;;;;;;4962218;28;20030;-84
2022/05/30 12:45:20;;;;;;;4.38;0.95;;;;;;;;;;4960591;28;20100;-83
2022/05/30 12:47:51;;;;;;;3.28;0.88;;;;;;;;;;4962761;28;20034;-83
2022/05/30 12:50:30;;;;;;;3.67;0.90;;;;;;;;;;4960500;28;20041;-83
2022/05/30 12:52:57;;;;;;;2.35;0.90;;;;;;;;;;4976730;28;20587;-84
2022/05/30 12:55:41;;;;;;;2.38;1.00;;;;;;;;;;4964083;28;20273;-83
2022/05/30 12:58:12;;;;;;;3.83;1.02;;;;;;;;;;4965662;28;20026;-85
2022/05/30 13:00:42;;;;;;;2.75;0.95;;;;;;;;;;4974416;28;20399;-84
2022/05/30 13:03:25;;;;;;;4.10;1.05;;;;;;;;;;4966381;28;20126;-84
2022/05/30 13:06:11;;;;;;;0.88;0.65;;;;;;;;;;4966174;28;20031;-84
2022/05/30 13:08:37;;;;;;;;;;;;;;;;;;4978851;28;20486;-84
2022/05/30 13:11:03;;;;;;;3.85;1.00;;;;;;;;;;4964284;28;19997;-84
2022/05/30 13:13:30;;;;;;;3.15;0.80;;;;;;;;;;4961205;28;20037;-83
2022/05/30 13:16:01;;;;;;;0.73;0.60;;;;;;;;;;4978404;28;20046;-83
2022/05/30 13:18:27;;;;;;;1.48;0.90;;;;;;;;;;4966167;28;20085;-84
2022/05/30 13:20:55;;;;;;;0.95;0.85;;;;;;;;;;4955997;28;20146;-85
2022/05/30 13:23:29;;;;;;;4.78;0.73;;;;;;;;;;4959355;28;20034;-83
2022/05/30 13:25:56;;;;;;;2.15;1.13;;;;;;;;;;4960234;28;20030;-83
2022/05/30 13:28:28;;;;;;;3.40;1.10;;;;;;;;;;4960998;28;20603;-82
2022/05/30 13:31:02;;;;;;;2.80;1.38;;;;;;;;;;4980552;28;20477;-83
2022/05/30 13:33:32;;;;;;;3.97;1.05;;;;;;;;;;4977762;28;20505;-82
2022/05/30 13:35:59;;;;;;;2.00;1.00;;;;;;;;;;4964202;28;20074;-82
2022/05/30 13:38:34;;;;;;;2.72;1.45;;;;;;;;;;4963793;28;20503;-82
2022/05/30 13:41:10;;;;;;;1.90;0.90;;;;;;;;;;4980138;28;20430;-82
2022/05/30 13:43:36;;;;;;;;;;;;;;;;;;4979544;28;20309;-82
2022/05/30 13:46:02;;;;;;;1.60;0.70;;;;;;;;;;4978981;28;20350;-82
2022/05/30 13:48:29;;;;;;;2.65;1.00;;;;;;;;;;4960805;28;20617;-83
2022/05/30 13:51:01;;;;;;;1.15;0.80;;;;;;;;;;4974557;28;20383;-82
2022/05/30 13:53:27;;;;;;;6.47;1.75;;;;;;;;;;4979872;28;20149;-81
2022/05/30 13:55:56;;;;;;;5.50;1.08;;;;;;;;;;4963263;28;20502;-81
2022/05/30 13:58:23;;;;;;;1.58;1.10;;;;;;;;;;4959576;28;20100;-81
2022/05/30 14:00:49;;;;;;;4.35;1.10;;;;;;;;;;4959812;28;20053;-81
2022/05/30 14:03:16;;;;;;;3.10;1.35;;;;;;;;;;4978190;28;20042;-81
2022/05/30 14:05:43;;;;;;;4.28;1.50;;;;;;;;;;4954700;28;20027;-81
2022/05/30 14:08:12;;;;;;;3.53;0.95;;;;;;;;;;4982076;28;20045;-81
2022/05/30 14:10:44;;;;;;;6.10;1.05;;;;;;;;;;4964803;28;20033;-81
2022/05/30 14:13:40;;;;;;;1.77;0.88;;;;;;;;;;4981711;28;20157;-82
2022/05/30 14:16:07;;;;;;;2.10;0.90;;;;;;;;;;4958949;28;20494;-81
2022/05/30 14:18:47;;;;;;;2.78;0.90;;;;;;;;;;4960296;28;21739;-82
2022/05/30 14:21:16;;;;;;;3.97;1.00;;;;;;;;;;4977043;28;20109;-81
2022/05/30 14:23:42;;;;;;;2.70;0.80;;;;;;;;;;4959995;28;20042;-82
2022/05/30 14:26:13;;;;;;;2.55;0.93;;;;;;;;;;4975713;28;20022;-82
2022/05/30 14:28:51;;;;;;;6.53;1.33;;;;;;;;;;4956322;28;20026;-82
2022/05/30 14:31:19;;;;;;;7.40;0.80;;;;;;;;;;4960364;28;20045;-82
2022/05/30 14:33:59;;;;;;;4.07;1.00;;;;;;;;;;4965567;28;20061;-83
2022/05/30 14:36:25;;;;;;;2.70;0.80;;;;;;;;;;4979553;28;20412;-83
2022/05/30 14:38:51;;;;;;;4.13;1.45;;;;;;;;;;4969398;28;20416;-83
2022/05/30 14:41:23;;;;;;;0.63;0.63;;;;;;;;;;4968483;28;20486;-82
2022/05/30 14:43:51;;;;;;;1.90;0.50;;;;;;;;;;4966114;28;20057;-83
2022/05/30 14:46:37;;;;;;;2.15;0.80;;;;;;;;;;4973873;28;20045;-83
2022/05/30 14:49:04;;;;;;;3.35;0.45;;;;;;;;;;4965240;28;20064;-82
2022/05/30 14:51:38;;;;;;;1.90;0.60;;;;;;;;;;4962402;28;20544;-81
2022/05/30 14:54:14;;;;;;;1.50;0.68;;;;;;;;;;4962072;28;20699;-80
2022/05/30 14:56:42;;;;;;;1.42;0.60;;;;;;;;;;4964755;28;20077;-82
2022/05/30 14:59:09;;;;;;;1.42;0.57;;;;;;;;;;4968311;28;20033;-82
2022/05/30 15:01:36;;;;;;;1.55;0.50;;;;;;;;;;4957025;28;20035;-82
2022/05/30 15:04:09;;;;;;;3.63;0.63;;;;;;;;;;4983390;28;20049;-82
2022/05/30 15:06:43;;;;;;;1.33;0.68;;;;;;;;;;4975377;28;20022;-81
2022/05/30 15:09:13;;;;;;;4.43;0.82;;;;;;;;;;4977477;28;20042;-80
2022/05/30 15:11:39;;;;;;;1.80;0.70;;;;;;;;;;4960638;28;20402;-80
2022/05/30 15:14:08;;;;;;;0.75;0.50;;;;;;;;;;4959039;28;20038;-81
2022/05/30 15:16:35;;;;;;;0.82;0.43;;;;;;;;;;4966318;28;20532;-81
2022/05/30 15:19:02;;;;;;;1.55;0.70;;;;;;;;;;4965153;28;20027;-82
2022/05/30 15:21:32;;;;;;;3.05;0.73;;;;;;;;;;4960140;28;20100;-81
2022/05/30 15:23:58;;;;;;;2.28;0.70;;;;;;;;;;4957316;28;20110;-81